KSU weather

Kristiansund Airport (Kvernberget)
Kvernberget, Møre og Romsdal, Norway

Public forecast

Using degrees Celsius for public forecast. Weather courtesy of forecast.io.

Current aviation weather report (METAR) for Kristiansund Airport (Kvernberget)

Retrieved 2019/12/15 12:20 UTC (33 minutes ago):

ENKB 151220Z 07003KT 030V100 CAVOK 03/M04 Q0981 RMK WIND 745FT 15009KT

Closest aviation forecast (TAF) to Kristiansund Airport (Kvernberget)

Forecast is more than 12 hours old.

Closest forecast is Molde Airport, 26.9 nm (49.8 km) SW. Retrieved 2011/03/08 08:45 UTC (9 years ago):

TAF TAF ESDF 0808 FCNO33 ENMI 080800 RRC TAF ENML 080800Z 0809/0818 21015KT 9999 FEW030 BKN050 TEMPO 0809/0818 21022G35KT BECMG 0815/0818 21022G35KT TEMPO 0815/0818 4000 RADZ BKN012